sensor_id;sensor_type;location;lat;lon;timestamp;pressure;altitude;pressure_sealevel;temperature;humidity
54306;BME280;66145;45.188;5.712;2023-05-02T00:00:53;99242.06;;;18.61;54.10
54306;BME280;66145;45.188;5.712;2023-05-02T00:03:19;99270.84;;;18.81;54.00
54306;BME280;66145;45.188;5.712;2023-05-02T00:05:44;99204.72;;;18.42;53.80
54306;BME280;66145;45.188;5.712;2023-05-02T00:08:10;99252.94;;;18.75;54.22
54306;BME280;66145;45.188;5.712;2023-05-02T00:10:36;99266.50;;;18.80;54.02
54306;BME280;66145;45.188;5.712;2023-05-02T00:13:01;99248.94;;;18.81;54.01
54306;BME280;66145;45.188;5.712;2023-05-02T00:15:27;99257.66;;;18.83;54.28
54306;BME280;66145;45.188;5.712;2023-05-02T00:17:52;99263.94;;;18.83;53.86
54306;BME280;66145;45.188;5.712;2023-05-02T00:20:18;99267.16;;;18.85;53.85
54306;BME280;66145;45.188;5.712;2023-05-02T00:22:43;99252.28;;;18.78;53.79
54306;BME280;66145;45.188;5.712;2023-05-02T00:25:09;99235.00;;;18.68;53.98
54306;BME280;66145;45.188;5.712;2023-05-02T00:27:34;99245.50;;;18.75;54.01
54306;BME280;66145;45.188;5.712;2023-05-02T00:30:00;99247.81;;;18.82;54.06
54306;BME280;66145;45.188;5.712;2023-05-02T00:32:26;99245.56;;;18.84;53.85
54306;BME280;66145;45.188;5.712;2023-05-02T00:34:52;99206.13;;;18.62;53.80
54306;BME280;66145;45.188;5.712;2023-05-02T00:37:18;99239.13;;;18.89;53.62
54306;BME280;66145;45.188;5.712;2023-05-02T00:39:43;99231.22;;;18.87;53.39
54306;BME280;66145;45.188;5.712;2023-05-02T00:42:09;99222.66;;;18.80;53.64
54306;BME280;66145;45.188;5.712;2023-05-02T00:44:34;99211.84;;;18.75;53.56
54306;BME280;66145;45.188;5.712;2023-05-02T00:47:00;99248.25;;;18.98;53.56
54306;BME280;66145;45.188;5.712;2023-05-02T00:49:26;99229.00;;;18.89;53.59
54306;BME280;66145;45.188;5.712;2023-05-02T00:51:52;99239.47;;;18.87;53.70
54306;BME280;66145;45.188;5.712;2023-05-02T00:54:18;99228.16;;;18.89;53.47
54306;BME280;66145;45.188;5.712;2023-05-02T00:56:43;99219.59;;;18.81;53.36
54306;BME280;66145;45.188;5.712;2023-05-02T00:59:09;99233.66;;;18.89;53.35
54306;BME280;66145;45.188;5.712;2023-05-02T01:01:49;99194.72;;;18.69;53.41
54306;BME280;66145;45.188;5.712;2023-05-02T01:04:35;99226.88;;;18.86;53.48
54306;BME280;66145;45.188;5.712;2023-05-02T01:10:03;99197.31;;;18.74;53.34
54306;BME280;66145;45.188;5.712;2023-05-02T01:15:38;99220.63;;;18.94;53.17
54306;BME280;66145;45.188;5.712;2023-05-02T01:18:04;99235.50;;;19.02;53.31
54306;BME280;66145;45.188;5.712;2023-05-02T01:20:32;99207.22;;;18.93;53.12
54306;BME280;66145;45.188;5.712;2023-05-02T01:23:05;99197.69;;;18.81;53.22
54306;BME280;66145;45.188;5.712;2023-05-02T01:28:57;99203.78;;;18.78;53.33
54306;BME280;66145;45.188;5.712;2023-05-02T01:31:24;99231.09;;;18.92;53.54
54306;BME280;66145;45.188;5.712;2023-05-02T01:33:54;99145.59;;;18.41;53.41
54306;BME280;66145;45.188;5.712;2023-05-02T01:36:24;99207.84;;;18.90;53.20
54306;BME280;66145;45.188;5.712;2023-05-02T01:38:51;99201.19;;;18.73;53.19
54306;BME280;66145;45.188;5.712;2023-05-02T01:41:19;99156.75;;;18.45;53.34
54306;BME280;66145;45.188;5.712;2023-05-02T01:43:46;99197.03;;;18.76;52.97
54306;BME280;66145;45.188;5.712;2023-05-02T01:46:13;99223.09;;;18.96;52.90
54306;BME280;66145;45.188;5.712;2023-05-02T01:48:41;99211.50;;;18.99;52.92
54306;BME280;66145;45.188;5.712;2023-05-02T01:51:10;99182.66;;;18.79;53.13
54306;BME280;66145;45.188;5.712;2023-05-02T01:53:37;99222.28;;;19.04;52.95
54306;BME280;66145;45.188;5.712;2023-05-02T01:56:04;99215.84;;;19.00;52.83
54306;BME280;66145;45.188;5.712;2023-05-02T01:58:32;99231.34;;;19.05;52.91
54306;BME280;66145;45.188;5.712;2023-05-02T02:01:00;99194.75;;;18.78;53.06
54306;BME280;66145;45.188;5.712;2023-05-02T02:03:28;99233.91;;;19.01;53.06
54306;BME280;66145;45.188;5.712;2023-05-02T02:05:55;99219.44;;;18.87;53.12
54306;BME280;66145;45.188;5.712;2023-05-02T02:08:21;99231.09;;;18.92;53.16
54306;BME280;66145;45.188;5.712;2023-05-02T02:11:03;99229.16;;;18.93;53.40
54306;BME280;66145;45.188;5.712;2023-05-02T02:13:48;99207.19;;;18.84;53.14
54306;BME280;66145;45.188;5.712;2023-05-02T02:16:23;99228.75;;;19.08;52.88
54306;BME280;66145;45.188;5.712;2023-05-02T02:18:49;99240.38;;;19.14;53.16
54306;BME280;66145;45.188;5.712;2023-05-02T02:21:19;99171.25;;;18.77;53.16
54306;BME280;66145;45.188;5.712;2023-05-02T02:23:47;99235.91;;;19.18;53.02
54306;BME280;66145;45.188;5.712;2023-05-02T02:26:18;99209.69;;;18.94;52.97
54306;BME280;66145;45.188;5.712;2023-05-02T02:28:45;99164.72;;;18.64;53.73
54306;BME280;66145;45.188;5.712;2023-05-02T02:31:10;99199.34;;;18.91;53.16
54306;BME280;66145;45.188;5.712;2023-05-02T02:33:36;99183.66;;;18.83;53.22
54306;BME280;66145;45.188;5.712;2023-05-02T02:36:14;99190.28;;;18.91;53.22
54306;BME280;66145;45.188;5.712;2023-05-02T02:38:50;99232.78;;;19.11;53.49
54306;BME280;66145;45.188;5.712;2023-05-02T02:41:23;99193.38;;;18.89;53.31
54306;BME280;66145;45.188;5.712;2023-05-02T02:44:20;99221.53;;;19.12;53.55
54306;BME280;66145;45.188;5.712;2023-05-02T02:52:10;99211.81;;;19.06;53.23
54306;BME280;66145;45.188;5.712;2023-05-02T02:54:52;99198.75;;;19.03;53.26
54306;BME280;66145;45.188;5.712;2023-05-02T02:57:27;99224.47;;;19.25;53.18
54306;BME280;66145;45.188;5.712;2023-05-02T03:00:11;99195.72;;;19.05;53.05
54306;BME280;66145;45.188;5.712;2023-05-02T03:02:40;99231.41;;;19.22;53.29
54306;BME280;66145;45.188;5.712;2023-05-02T03:05:08;99233.16;;;19.18;53.16
54306;BME280;66145;45.188;5.712;2023-05-02T03:07:34;99165.94;;;18.80;53.64
54306;BME280;66145;45.188;5.712;2023-05-02T03:10:02;99226.38;;;19.15;52.94
54306;BME280;66145;45.188;5.712;2023-05-02T03:12:29;99146.84;;;18.66;53.29
54306;BME280;66145;45.188;5.712;2023-05-02T03:15:10;99192.72;;;18.92;53.58
54306;BME280;66145;45.188;5.712;2023-05-02T03:17:38;99160.28;;;18.77;53.21
54306;BME280;66145;45.188;5.712;2023-05-02T03:20:04;99204.22;;;19.03;53.24
54306;BME280;66145;45.188;5.712;2023-05-02T03:22:30;99231.41;;;19.22;53.13
54306;BME280;66145;45.188;5.712;2023-05-02T03:24:55;99243.34;;;19.26;53.27
54306;BME280;66145;45.188;5.712;2023-05-02T03:27:20;99241.09;;;19.28;53.29
54306;BME280;66145;45.188;5.712;2023-05-02T03:29:45;99243.34;;;19.26;53.45
54306;BME280;66145;45.188;5.712;2023-05-02T03:32:11;99203.28;;;19.08;53.32
54306;BME280;66145;45.188;5.712;2023-05-02T03:34:37;99238.66;;;19.27;53.27
54306;BME280;66145;45.188;5.712;2023-05-02T03:37:02;99189.50;;;18.90;53.58
54306;BME280;66145;45.188;5.712;2023-05-02T03:39:28;99215.22;;;19.12;53.42
54306;BME280;66145;45.188;5.712;2023-05-02T03:41:53;99242.53;;;19.26;53.28
54306;BME280;66145;45.188;5.712;2023-05-02T03:44:18;99240.56;;;19.18;53.24
54306;BME280;66145;45.188;5.712;2023-05-02T03:46:44;99246.03;;;19.18;53.39
54306;BME280;66145;45.188;5.712;2023-05-02T03:49:10;99198.84;;;18.89;53.53
54306;BME280;66145;45.188;5.712;2023-05-02T03:51:36;99252.34;;;19.18;53.63
54306;BME280;66145;45.188;5.712;2023-05-02T03:54:01;99247.84;;;19.22;53.60
54306;BME280;66145;45.188;5.712;2023-05-02T03:56:27;99248.34;;;19.24;53.31
54306;BME280;66145;45.188;5.712;2023-05-02T03:58:52;99240.91;;;19.25;53.32
54306;BME280;66145;45.188;5.712;2023-05-02T04:01:18;99220.72;;;19.12;53.21
54306;BME280;66145;45.188;5.712;2023-05-02T04:03:43;99220.22;;;19.10;53.44
54306;BME280;66145;45.188;5.712;2023-05-02T04:06:09;99207.66;;;19.09;53.24
54306;BME280;66145;45.188;5.712;2023-05-02T04:08:34;99249.00;;;19.30;53.06
54306;BME280;66145;45.188;5.712;2023-05-02T04:10:59;99253.34;;;19.22;53.32
54306;BME280;66145;45.188;5.712;2023-05-02T04:13:25;99244.28;;;19.22;53.24
54306;BME280;66145;45.188;5.712;2023-05-02T04:15:50;99262.22;;;19.28;53.54
54306;BME280;66145;45.188;5.712;2023-05-02T04:18:15;99269.13;;;19.25;53.45
54306;BME280;66145;45.188;5.712;2023-05-02T04:20:44;99194.13;;;18.81;53.35
54306;BME280;66145;45.188;5.712;2023-05-02T04:23:09;99262.50;;;19.18;53.51
54306;BME280;66145;45.188;5.712;2023-05-02T04:25:34;99256.50;;;19.07;53.88
54306;BME280;66145;45.188;5.712;2023-05-02T04:28:00;99257.63;;;19.06;53.44
54306;BME280;66145;45.188;5.712;2023-05-02T04:30:25;99242.81;;;19.07;53.38
54306;BME280;66145;45.188;5.712;2023-05-02T04:32:51;99220.63;;;18.94;53.30
54306;BME280;66145;45.188;5.712;2023-05-02T04:35:16;99214.63;;;18.83;53.21
54306;BME280;66145;45.188;5.712;2023-05-02T04:37:42;99232.09;;;18.96;53.54
54306;BME280;66145;45.188;5.712;2023-05-02T04:40:07;99291.75;;;19.31;53.29
54306;BME280;66145;45.188;5.712;2023-05-02T04:42:33;99199.72;;;18.67;53.42
54306;BME280;66145;45.188;5.712;2023-05-02T04:44:58;99282.06;;;19.25;53.18
54306;BME280;66145;45.188;5.712;2023-05-02T04:47:24;99274.75;;;19.11;53.32
54306;BME280;66145;45.188;5.712;2023-05-02T04:49:49;99288.28;;;19.08;53.31
54306;BME280;66145;45.188;5.712;2023-05-02T04:52:15;99256.06;;;18.91;53.44
54306;BME280;66145;45.188;5.712;2023-05-02T04:54:40;99323.97;;;19.25;53.48
54306;BME280;66145;45.188;5.712;2023-05-02T04:57:05;99286.47;;;19.03;53.48
54306;BME280;66145;45.188;5.712;2023-05-02T04:59:32;99283.19;;;18.92;53.65
54306;BME280;66145;45.188;5.712;2023-05-02T05:01:57;99332.41;;;19.29;53.37
54306;BME280;66145;45.188;5.712;2023-05-02T05:04:23;99336.09;;;19.24;53.34
54306;BME280;66145;45.188;5.712;2023-05-02T05:06:49;99339.31;;;19.26;52.99
54306;BME280;66145;45.188;5.712;2023-05-02T05:09:14;99356.63;;;19.36;53.10
54306;BME280;66145;45.188;5.712;2023-05-02T05:11:40;99337.25;;;19.32;53.25
54306;BME280;66145;45.188;5.712;2023-05-02T05:14:08;99356.63;;;19.36;53.10
54306;BME280;66145;45.188;5.712;2023-05-02T05:16:33;99332.19;;;19.17;53.18
54306;BME280;66145;45.188;5.712;2023-05-02T05:18:59;99346.41;;;19.27;53.14
54306;BME280;66145;45.188;5.712;2023-05-02T05:21:24;99347.06;;;19.24;53.30
54306;BME280;66145;45.188;5.712;2023-05-02T05:23:51;99336.19;;;19.10;53.48
54306;BME280;66145;45.188;5.712;2023-05-02T05:26:16;99301.00;;;18.81;53.33
54306;BME280;66145;45.188;5.712;2023-05-02T05:28:42;99359.47;;;19.22;53.36
54306;BME280;66145;45.188;5.712;2023-05-02T05:31:09;99337.13;;;19.06;53.22
54306;BME280;66145;45.188;5.712;2023-05-02T05:33:35;99373.16;;;19.22;53.54
54306;BME280;66145;45.188;5.712;2023-05-02T05:36:11;99366.44;;;19.28;53.45
54306;BME280;66145;45.188;5.712;2023-05-02T05:38:39;99358.22;;;19.28;53.19
54306;BME280;66145;45.188;5.712;2023-05-02T05:41:04;99372.75;;;19.37;53.21
54306;BME280;66145;45.188;5.712;2023-05-02T05:43:30;99369.50;;;19.35;53.15
54306;BME280;66145;45.188;5.712;2023-05-02T05:45:56;99369.06;;;19.33;52.99
54306;BME280;66145;45.188;5.712;2023-05-02T05:48:22;99303.06;;;18.98;53.08
54306;BME280;66145;45.188;5.712;2023-05-02T05:50:47;99365.97;;;19.35;53.23
54306;BME280;66145;45.188;5.712;2023-05-02T05:53:13;99354.00;;;19.30;53.11
54306;BME280;66145;45.188;5.712;2023-05-02T05:55:39;99333.94;;;19.12;53.24
54306;BME280;66145;45.188;5.712;2023-05-02T05:58:05;99356.59;;;19.27;53.24
54306;BME280;66145;45.188;5.712;2023-05-02T06:00:34;99351.06;;;19.18;53.07
54306;BME280;66145;45.188;5.712;2023-05-02T06:03:00;99355.75;;;19.26;53.40
54306;BME280;66145;45.188;5.712;2023-05-02T06:05:25;99294.25;;;18.87;53.26
54306;BME280;66145;45.188;5.712;2023-05-02T06:07:51;99347.50;;;19.18;52.95
54306;BME280;66145;45.188;5.712;2023-05-02T06:10:16;99329.56;;;19.11;53.11
54306;BME280;66145;45.188;5.712;2023-05-02T06:12:42;99298.22;;;18.95;52.96
54306;BME280;66145;45.188;5.712;2023-05-02T06:15:07;99360.31;;;19.31;53.22
54306;BME280;66145;45.188;5.712;2023-05-02T06:17:32;99354.97;;;19.26;53.01
54306;BME280;66145;45.188;5.712;2023-05-02T06:19:58;99343.97;;;19.17;53.14
54306;BME280;66145;45.188;5.712;2023-05-02T06:22:23;99344.75;;;19.18;53.20
54306;BME280;66145;45.188;5.712;2023-05-02T06:24:48;99354.59;;;19.19;53.36
54306;BME280;66145;45.188;5.712;2023-05-02T06:27:14;99377.69;;;19.26;53.57
54306;BME280;66145;45.188;5.712;2023-05-02T06:29:39;99390.50;;;19.31;53.56
54306;BME280;66145;45.188;5.712;2023-05-02T06:32:04;99363.09;;;19.08;53.68
54306;BME280;66145;45.188;5.712;2023-05-02T06:34:31;99366.84;;;19.12;53.42
54306;BME280;66145;45.188;5.712;2023-05-02T06:36:57;99386.09;;;19.21;53.73
54306;BME280;66145;45.188;5.712;2023-05-02T06:39:22;99396.59;;;19.28;53.45
54306;BME280;66145;45.188;5.712;2023-05-02T06:41:48;99382.66;;;19.15;53.46
54306;BME280;66145;45.188;5.712;2023-05-02T06:44:13;99355.00;;;19.03;53.38
54306;BME280;66145;45.188;5.712;2023-05-02T06:46:38;99371.53;;;19.21;53.19
54306;BME280;66145;45.188;5.712;2023-05-02T06:49:04;99358.28;;;19.14;53.35
54306;BME280;66145;45.188;5.712;2023-05-02T06:51:29;99386.47;;;19.37;53.24
54306;BME280;66145;45.188;5.712;2023-05-02T06:53:55;99387.91;;;19.35;53.16
54306;BME280;66145;45.188;5.712;2023-05-02T06:56:21;99361.84;;;19.14;53.26
54306;BME280;66145;45.188;5.712;2023-05-02T06:58:48;99351.50;;;19.11;53.29
54306;BME280;66145;45.188;5.712;2023-05-02T07:01:13;99351.19;;;19.13;53.24
54306;BME280;66145;45.188;5.712;2023-05-02T07:03:38;99388.03;;;19.29;53.33
54306;BME280;66145;45.188;5.712;2023-05-02T07:06:04;99350.69;;;19.11;53.28
54306;BME280;66145;45.188;5.712;2023-05-02T07:08:29;99383.84;;;19.23;53.34
54306;BME280;66145;45.188;5.712;2023-05-02T07:10:54;99381.25;;;19.27;53.46
54306;BME280;66145;45.188;5.712;2023-05-02T07:13:20;99318.09;;;18.87;53.30
54306;BME280;66145;45.188;5.712;2023-05-02T07:15:45;99386.91;;;19.30;52.85
54306;BME280;66145;45.188;5.712;2023-05-02T07:18:10;99366.69;;;19.18;53.12
54306;BME280;66145;45.188;5.712;2023-05-02T07:20:36;99361.53;;;19.16;53.04
54306;BME280;66145;45.188;5.712;2023-05-02T07:23:02;99378.53;;;19.27;52.91
54306;BME280;66145;45.188;5.712;2023-05-02T07:25:28;99392.28;;;19.36;53.16
54306;BME280;66145;45.188;5.712;2023-05-02T07:27:53;99360.72;;;19.15;52.92
54306;BME280;66145;45.188;5.712;2023-05-02T07:30:19;99367.84;;;19.17;52.91
54306;BME280;66145;45.188;5.712;2023-05-02T07:32:44;99353.75;;;19.09;53.06
54306;BME280;66145;45.188;5.712;2023-05-02T07:35:09;99388.03;;;19.29;53.12
54306;BME280;66145;45.188;5.712;2023-05-02T07:37:35;99368.63;;;19.17;53.23
54306;BME280;66145;45.188;5.712;2023-05-02T07:40:02;99302.44;;;18.78;53.13
54306;BME280;66145;45.188;5.712;2023-05-02T07:42:29;99375.28;;;19.25;52.95
54306;BME280;66145;45.188;5.712;2023-05-02T07:44:54;99342.63;;;19.06;53.07
54306;BME280;66145;45.188;5.712;2023-05-02T07:47:20;99377.69;;;19.26;53.04
54306;BME280;66145;45.188;5.712;2023-05-02T07:49:50;99368.81;;;19.21;52.88
54306;BME280;66145;45.188;5.712;2023-05-02T07:52:15;99380.44;;;19.26;53.36
54306;BME280;66145;45.188;5.712;2023-05-02T07:54:40;99357.34;;;19.19;53.08
54306;BME280;66145;45.188;5.712;2023-05-02T07:57:06;99368.19;;;19.24;53.26
54306;BME280;66145;45.188;5.712;2023-05-02T07:59:32;99333.88;;;19.04;53.11
54306;BME280;66145;45.188;5.712;2023-05-02T08:01:58;99306.69;;;18.84;53.49
54306;BME280;66145;45.188;5.712;2023-05-02T08:04:24;99369.31;;;19.23;52.97
54306;BME280;66145;45.188;5.712;2023-05-02T08:06:49;99355.38;;;19.10;53.41
54306;BME280;66145;45.188;5.712;2023-05-02T08:09:15;99329.66;;;18.97;53.27
54306;BME280;66145;45.188;5.712;2023-05-02T08:11:40;99350.00;;;19.05;52.90
54306;BME280;66145;45.188;5.712;2023-05-02T08:14:06;99332.19;;;18.94;53.29
54306;BME280;66145;45.188;5.712;2023-05-02T08:16:31;99352.97;;;19.09;53.31
54306;BME280;66145;45.188;5.712;2023-05-02T08:18:56;99375.34;;;19.11;53.42
54306;BME280;66145;45.188;5.712;2023-05-02T08:21:22;99295.78;;;18.70;53.04
54306;BME280;66145;45.188;5.712;2023-05-02T08:23:47;99337.88;;;18.97;53.24
54306;BME280;66145;45.188;5.712;2023-05-02T08:26:13;99346.78;;;19.03;53.05
54306;BME280;66145;45.188;5.712;2023-05-02T08:28:40;99312.72;;;18.95;53.24
54306;BME280;66145;45.188;5.712;2023-05-02T08:31:05;99341.34;;;19.12;53.22
54306;BME280;66145;45.188;5.712;2023-05-02T08:33:30;99359.28;;;19.18;53.31
54306;BME280;66145;45.188;5.712;2023-05-02T08:35:56;99335.75;;;18.94;53.11
54306;BME280;66145;45.188;5.712;2023-05-02T08:38:21;99371.38;;;19.17;53.29
54306;BME280;66145;45.188;5.712;2023-05-02T08:40:46;99322.34;;;18.93;52.99
54306;BME280;66145;45.188;5.712;2023-05-02T08:43:12;99305.50;;;18.77;53.37
54306;BME280;66145;45.188;5.712;2023-05-02T08:45:43;99362.91;;;19.05;53.13
54306;BME280;66145;45.188;5.712;2023-05-02T08:48:11;99341.34;;;18.89;53.37
54306;BME280;66145;45.188;5.712;2023-05-02T08:50:43;99331.81;;;18.87;53.40
54306;BME280;66145;45.188;5.712;2023-05-02T08:53:11;99371.44;;;19.03;52.89
54306;BME280;66145;45.188;5.712;2023-05-02T08:55:39;99342.31;;;18.84;53.03
54306;BME280;66145;45.188;5.712;2023-05-02T08:58:06;99352.44;;;18.84;53.36
54306;BME280;66145;45.188;5.712;2023-05-02T09:00:33;99379.00;;;18.97;53.08
54306;BME280;66145;45.188;5.712;2023-05-02T09:06:04;99351.06;;;18.73;53.43
54306;BME280;66145;45.188;5.712;2023-05-02T09:08:30;99382.13;;;18.91;53.56
54306;BME280;66145;45.188;5.712;2023-05-02T09:10:56;99387.63;;;18.91;53.55
54306;BME280;66145;45.188;5.712;2023-05-02T09:16:00;99382.13;;;18.91;53.21
54306;BME280;66145;45.188;5.712;2023-05-02T09:18:34;99346.16;;;18.83;53.35
54306;BME280;66145;45.188;5.712;2023-05-02T09:21:00;99389.22;;;19.06;53.10
54306;BME280;66145;45.188;5.712;2023-05-02T09:23:35;99376.13;;;19.03;53.20
54306;BME280;66145;45.188;5.712;2023-05-02T09:26:09;99361.50;;;18.93;53.21
54306;BME280;66145;45.188;5.712;2023-05-02T09:28:51;99369.66;;;18.98;53.28
54306;BME280;66145;45.188;5.712;2023-05-02T09:31:22;99354.06;;;18.85;52.91
54306;BME280;66145;45.188;5.712;2023-05-02T09:33:48;99347.06;;;18.79;53.35
54306;BME280;66145;45.188;5.712;2023-05-02T09:36:15;99372.72;;;18.97;53.26
54306;BME280;66145;45.188;5.712;2023-05-02T09:38:42;99355.34;;;18.88;53.26
54306;BME280;66145;45.188;5.712;2023-05-02T09:41:08;99343.53;;;18.78;53.37
54306;BME280;66145;45.188;5.712;2023-05-02T09:43:34;99337.69;;;18.71;53.21
54306;BME280;66145;45.188;5.712;2023-05-02T09:46:02;99342.84;;;18.73;53.69
54306;BME280;66145;45.188;5.712;2023-05-02T09:48:29;99333.63;;;18.68;53.37
54306;BME280;66145;45.188;5.712;2023-05-02T09:50:55;99356.28;;;18.83;53.49
54306;BME280;66145;45.188;5.712;2023-05-02T09:53:23;99336.81;;;18.62;53.63
54306;BME280;66145;45.188;5.712;2023-05-02T09:55:58;99322.94;;;18.58;53.59
54306;BME280;66145;45.188;5.712;2023-05-02T09:58:23;99303.69;;;18.49;53.61
54306;BME280;66145;45.188;5.712;2023-05-02T10:00:50;99323.91;;;18.62;53.79
54306;BME280;66145;45.188;5.712;2023-05-02T10:03:16;99328.03;;;18.74;53.36
54306;BME280;66145;45.188;5.712;2023-05-02T10:05:44;99372.22;;;18.95;53.18
54306;BME280;66145;45.188;5.712;2023-05-02T10:08:10;99330.28;;;18.72;53.19
54306;BME280;66145;45.188;5.712;2023-05-02T10:10:41;99346.34;;;18.87;53.52
54306;BME280;66145;45.188;5.712;2023-05-02T10:13:12;99341.28;;;18.80;53.22
54306;BME280;66145;45.188;5.712;2023-05-02T10:15:43;99352.44;;;18.84;53.31
54306;BME280;66145;45.188;5.712;2023-05-02T10:18:14;99335.63;;;18.77;53.33
54306;BME280;66145;45.188;5.712;2023-05-02T10:20:49;99360.91;;;18.96;53.28
54306;BME280;66145;45.188;5.712;2023-05-02T10:23:18;99326.91;;;18.75;53.33
54306;BME280;66145;45.188;5.712;2023-05-02T10:25:45;99336.00;;;18.84;53.32
54306;BME280;66145;45.188;5.712;2023-05-02T10:28:11;99317.88;;;18.74;53.39
54306;BME280;66145;45.188;5.712;2023-05-02T10:30:38;99317.38;;;18.72;53.27
54306;BME280;66145;45.188;5.712;2023-05-02T10:33:04;99327.72;;;18.75;53.08
54306;BME280;66145;45.188;5.712;2023-05-02T10:35:30;99350.53;;;18.93;53.19
54306;BME280;66145;45.188;5.712;2023-05-02T10:37:57;99356.44;;;19.00;53.12
54306;BME280;66145;45.188;5.712;2023-05-02T10:40:24;99336.75;;;18.98;53.21
54306;BME280;66145;45.188;5.712;2023-05-02T10:42:50;99317.63;;;18.84;53.15
54306;BME280;66145;45.188;5.712;2023-05-02T10:45:36;99320.22;;;18.90;53.07
54306;BME280;66145;45.188;5.712;2023-05-02T10:53:25;99340.00;;;19.00;53.22
54306;BME280;66145;45.188;5.712;2023-05-02T10:56:07;99334.84;;;18.99;53.14
54306;BME280;66145;45.188;5.712;2023-05-02T10:58:32;99335.47;;;18.96;53.34
54306;BME280;66145;45.188;5.712;2023-05-02T11:03:59;99321.78;;;18.82;53.37
54306;BME280;66145;45.188;5.712;2023-05-02T11:06:26;99268.44;;;18.57;53.15
54306;BME280;66145;45.188;5.712;2023-05-02T11:08:52;99321.56;;;18.92;53.40
54306;BME280;66145;45.188;5.712;2023-05-02T11:11:37;99316.78;;;18.98;53.28
54306;BME280;66145;45.188;5.712;2023-05-02T11:14:03;99318.38;;;18.99;53.21
54306;BME280;66145;45.188;5.712;2023-05-02T11:19:26;99291.91;;;18.94;53.11
54306;BME280;66145;45.188;5.712;2023-05-02T11:21:52;99305.19;;;19.01;53.14
54306;BME280;66145;45.188;5.712;2023-05-02T11:24:41;99298.56;;;19.02;53.07
54306;BME280;66145;45.188;5.712;2023-05-02T11:35:24;99300.31;;;18.98;53.40
54306;BME280;66145;45.188;5.712;2023-05-02T11:37:59;99297.88;;;18.96;53.17
54306;BME280;66145;45.188;5.712;2023-05-02T11:40:26;99270.78;;;18.72;53.36
54306;BME280;66145;45.188;5.712;2023-05-02T11:42:52;99293.31;;;18.92;53.57
54306;BME280;66145;45.188;5.712;2023-05-02T11:45:18;99263.25;;;18.78;53.43
54306;BME280;66145;45.188;5.712;2023-05-02T11:47:46;99250.94;;;18.66;53.33
54306;BME280;66145;45.188;5.712;2023-05-02T11:50:13;99249.22;;;18.70;53.28
54306;BME280;66145;45.188;5.712;2023-05-02T11:52:41;99293.41;;;19.00;53.27
54306;BME280;66145;45.188;5.712;2023-05-02T11:55:09;99297.44;;;19.03;53.02
54306;BME280;66145;45.188;5.712;2023-05-02T11:57:36;99290.03;;;19.04;53.02
54306;BME280;66145;45.188;5.712;2023-05-02T12:00:02;99284.50;;;18.95;53.08
54306;BME280;66145;45.188;5.712;2023-05-02T12:02:35;99247.97;;;18.77;53.29
54306;BME280;66145;45.188;5.712;2023-05-02T12:05:02;99250.88;;;18.80;53.14
54306;BME280;66145;45.188;5.712;2023-05-02T12:07:37;99284.44;;;18.86;53.44
54306;BME280;66145;45.188;5.712;2023-05-02T12:10:03;99273.97;;;18.88;53.22
54306;BME280;66145;45.188;5.712;2023-05-02T12:12:30;99272.63;;;18.85;53.17
54306;BME280;66145;45.188;5.712;2023-05-02T12:14:56;99234.63;;;18.61;53.18
54306;BME280;66145;45.188;5.712;2023-05-02T12:17:21;99262.81;;;18.84;53.17
54306;BME280;66145;45.188;5.712;2023-05-02T12:19:48;99289.66;;;18.96;53.23
54306;BME280;66145;45.188;5.712;2023-05-02T12:22:15;99269.09;;;18.85;53.31
54306;BME280;66145;45.188;5.712;2023-05-02T12:24:40;99269.91;;;18.85;53.42
54306;BME280;66145;45.188;5.712;2023-05-02T12:27:14;99248.09;;;18.72;53.19
54306;BME280;66145;45.188;5.712;2023-05-02T12:32:04;99276.53;;;18.93;52.96
54306;BME280;66145;45.188;5.712;2023-05-02T12:34:34;99265.00;;;18.96;53.23
54306;BME280;66145;45.188;5.712;2023-05-02T12:37:00;99262.25;;;18.96;53.00
54306;BME280;66145;45.188;5.712;2023-05-02T12:42:10;99233.59;;;18.80;53.12
54306;BME280;66145;45.188;5.712;2023-05-02T12:44:44;99244.13;;;18.87;53.19
54306;BME280;66145;45.188;5.712;2023-05-02T12:47:11;99226.84;;;18.77;53.01
54306;BME280;66145;45.188;5.712;2023-05-02T12:49:57;99241.03;;;18.79;53.12
54306;BME280;66145;45.188;5.712;2023-05-02T12:52:48;99261.63;;;18.99;53.14
54306;BME280;66145;45.188;5.712;2023-05-02T12:55:24;99251.38;;;18.82;53.26
54306;BME280;66145;45.188;5.712;2023-05-02T12:58:01;99265.13;;;18.91;53.26
54306;BME280;66145;45.188;5.712;2023-05-02T13:00:32;99266.41;;;18.94;53.38
54306;BME280;66145;45.188;5.712;2023-05-02T13:02:57;99205.16;;;18.58;53.18
54306;BME280;66145;45.188;5.712;2023-05-02T13:05:23;99254.28;;;18.86;53.24
54306;BME280;66145;45.188;5.712;2023-05-02T13:07:48;99213.66;;;18.57;53.23
54306;BME280;66145;45.188;5.712;2023-05-02T13:10:14;99252.81;;;18.89;53.46
54306;BME280;66145;45.188;5.712;2023-05-02T13:12:42;99233.31;;;18.81;53.15
54306;BME280;66145;45.188;5.712;2023-05-02T13:15:08;99261.31;;;19.01;53.25
54306;BME280;66145;45.188;5.712;2023-05-02T13:17:34;99260.50;;;19.00;53.27
54306;BME280;66145;45.188;5.712;2023-05-02T13:20:00;99265.66;;;19.02;53.26
54306;BME280;66145;45.188;5.712;2023-05-02T13:22:26;99240.13;;;18.93;53.10
54306;BME280;66145;45.188;5.712;2023-05-02T13:24:52;99247.91;;;18.99;53.31
54306;BME280;66145;45.188;5.712;2023-05-02T13:27:18;99239.31;;;18.92;53.13
54306;BME280;66145;45.188;5.712;2023-05-02T13:29:44;99233.47;;;18.85;53.12
54306;BME280;66145;45.188;5.712;2023-05-02T13:32:10;99209.09;;;18.75;53.37
54306;BME280;66145;45.188;5.712;2023-05-02T13:34:35;99238.91;;;18.99;53.23
54306;BME280;66145;45.188;5.712;2023-05-02T13:37:01;99241.94;;;18.97;53.29
54306;BME280;66145;45.188;5.712;2023-05-02T13:39:26;99222.03;;;18.83;53.27
54306;BME280;66145;45.188;5.712;2023-05-02T13:41:51;99211.69;;;18.80;52.99
54306;BME280;66145;45.188;5.712;2023-05-02T13:44:17;99174.69;;;18.60;52.98
54306;BME280;66145;45.188;5.712;2023-05-02T13:46:42;99208.78;;;18.76;53.16